createdAt,value
2018-04-10T00:00:26.542Z,70.20
2018-04-10T00:02:52.758Z,70.80
2018-04-10T00:05:18.990Z,71.30
2018-04-10T00:07:45.201Z,70.40
2018-04-10T00:10:11.425Z,70.50
2018-04-10T00:12:37.701Z,70.70
2018-04-10T00:15:03.944Z,70.70
2018-04-10T00:17:30.530Z,70.60
2018-04-10T00:19:56.725Z,70.60
2018-04-10T00:22:23.291Z,70.40
2018-04-10T00:24:49.541Z,70.30
2018-04-10T00:27:16.356Z,70.90
2018-04-10T00:29:42.594Z,71.40
2018-04-10T00:32:08.786Z,71.60
2018-04-10T00:34:35.017Z,71.60
2018-04-10T00:37:01.235Z,71.40
2018-04-10T00:39:27.874Z,72.00
2018-04-10T00:41:54.111Z,72.00
2018-04-10T00:44:20.341Z,72.40
2018-04-10T00:46:46.571Z,72.30
2018-04-10T00:49:12.837Z,72.40
2018-04-10T00:51:39.039Z,72.40
2018-04-10T00:54:05.289Z,71.80
2018-04-10T00:56:31.519Z,72.10
2018-04-10T00:58:57.767Z,72.40
2018-04-10T01:01:24.031Z,72.90
2018-04-10T01:03:50.656Z,72.00
2018-04-10T01:06:17.260Z,72.70
2018-04-10T01:08:43.499Z,72.70
2018-04-10T01:11:09.693Z,72.50
2018-04-10T01:13:35.925Z,72.10
2018-04-10T01:16:02.132Z,72.40
2018-04-10T01:18:28.356Z,72.00
2018-04-10T01:20:54.556Z,72.20
2018-04-10T01:23:21.363Z,72.00
2018-04-10T01:25:47.570Z,72.40
2018-04-10T01:28:13.785Z,72.00
2018-04-10T01:30:39.987Z,72.20
2018-04-10T01:33:06.577Z,72.60
2018-04-10T01:35:32.793Z,72.60
2018-04-10T01:37:59.008Z,72.60
2018-04-10T01:40:25.248Z,73.10
2018-04-10T01:42:51.460Z,73.30
2018-04-10T01:45:17.720Z,73.10
2018-04-10T01:47:43.973Z,73.30
2018-04-10T01:50:10.200Z,73.40
2018-04-10T01:52:36.410Z,73.50
2018-04-10T01:55:02.682Z,73.90
2018-04-10T01:57:29.268Z,74.50
2018-04-10T01:59:55.492Z,74.50
2018-04-10T02:02:21.745Z,74.80
2018-04-10T02:04:47.989Z,74.40
2018-04-10T02:07:14.196Z,75.30
2018-04-10T02:09:58.782Z,74.90
2018-04-10T02:12:29.221Z,75.00
2018-04-10T02:14:55.801Z,75.30
2018-04-10T02:17:22.078Z,75.30
2018-04-10T02:19:54.657Z,75.90
2018-04-10T02:22:21.280Z,75.60
2018-04-10T02:24:47.492Z,75.60
2018-04-10T02:27:13.686Z,75.30
2018-04-10T02:29:39.894Z,75.40
2018-04-10T02:32:06.080Z,75.30
2018-04-10T02:34:32.276Z,76.20
2018-04-10T02:36:58.503Z,76.50
2018-04-10T02:39:24.730Z,76.30
2018-04-10T02:41:50.946Z,76.10
2018-04-10T02:44:17.162Z,75.60
2018-04-10T02:46:43.373Z,75.40
2018-04-10T02:49:09.925Z,74.70
2018-04-10T02:51:36.171Z,74.70
2018-04-10T02:54:02.378Z,74.50
2018-04-10T02:56:28.545Z,73.90
2018-04-10T02:58:55.377Z,73.30
2018-04-10T03:01:21.602Z,73.30
2018-04-10T03:03:47.795Z,74.30
2018-04-10T03:06:14.366Z,74.50
2018-04-10T03:08:40.536Z,74.50
2018-04-10T03:11:06.750Z,74.70
2018-04-10T03:13:32.962Z,75.10
2018-04-10T03:15:59.143Z,75.00
2018-04-10T03:18:25.331Z,75.10
2018-04-10T03:20:51.957Z,74.50
2018-04-10T03:23:18.133Z,74.50
2018-04-10T03:25:44.321Z,75.20
2018-04-10T03:28:10.497Z,75.50
2018-04-10T03:30:36.743Z,75.80
2018-04-10T03:33:02.920Z,76.00
2018-04-10T03:35:29.159Z,75.50
2018-04-10T03:37:55.692Z,75.80
2018-04-10T03:40:22.280Z,75.40
2018-04-10T03:42:49.377Z,75.40
2018-04-10T03:45:15.943Z,76.60
2018-04-10T03:47:42.122Z,76.60
2018-04-10T03:50:08.332Z,76.40
2018-04-10T03:52:34.552Z,77.10
2018-04-10T03:55:00.759Z,77.10
2018-04-10T03:57:26.984Z,77.10
2018-04-10T03:59:53.221Z,76.70
2018-04-10T04:02:20.258Z,76.60
2018-04-10T04:04:46.456Z,76.60
2018-04-10T04:07:13.072Z,76.50
2018-04-10T04:09:39.285Z,76.50
2018-04-10T04:12:05.535Z,76.90
2018-04-10T04:14:31.760Z,76.40
2018-04-10T04:17:10.368Z,76.70
2018-04-10T04:19:48.760Z,76.80
2018-04-10T04:22:25.975Z,76.80
2018-04-10T04:24:52.209Z,77.40
2018-04-10T04:27:18.489Z,77.60
2018-04-10T04:29:44.725Z,77.10
2018-04-10T04:32:11.485Z,76.70
2018-04-10T04:34:37.676Z,76.90
2018-04-10T04:37:03.923Z,76.90
2018-04-10T04:39:30.171Z,77.10
2018-04-10T04:41:56.596Z,77.20
2018-04-10T04:44:22.799Z,77.20
2018-04-10T04:46:49.022Z,77.40
2018-04-10T04:49:15.268Z,77.50
2018-04-10T04:51:41.511Z,77.70
2018-04-10T04:54:07.745Z,77.60
2018-04-10T04:56:34.602Z,77.60
2018-04-10T04:59:00.846Z,77.60
2018-04-10T05:01:27.467Z,77.70
2018-04-10T05:03:53.675Z,77.70
2018-04-10T05:06:20.587Z,77.60
2018-04-10T05:08:46.789Z,77.70
2018-04-10T05:11:13.477Z,78.00
2018-04-10T05:13:39.721Z,78.00
2018-04-10T05:16:05.913Z,78.00
2018-04-10T05:18:32.141Z,78.50
2018-04-10T05:20:58.989Z,78.20
2018-04-10T05:23:25.255Z,78.10
2018-04-10T05:25:51.565Z,77.90
2018-04-10T05:28:17.827Z,78.10
2018-04-10T05:30:44.102Z,78.10
2018-04-10T05:33:10.346Z,78.10
2018-04-10T05:35:36.564Z,78.00
2018-04-10T05:38:02.816Z,77.50
2018-04-10T05:40:29.014Z,77.70
2018-04-10T05:42:55.232Z,77.10
2018-04-10T05:45:21.468Z,76.70
2018-04-10T05:47:47.723Z,76.40
2018-04-10T05:50:13.951Z,77.30
2018-04-10T05:52:40.219Z,76.50
2018-04-10T05:55:06.401Z,76.40
2018-04-10T05:57:32.617Z,76.90
2018-04-10T05:59:58.857Z,75.90
2018-04-10T06:02:25.142Z,75.90
2018-04-10T06:04:51.363Z,75.60
2018-04-10T06:07:17.936Z,76.80
2018-04-10T06:09:44.193Z,76.80
2018-04-10T06:12:10.438Z,76.10
2018-04-10T06:14:36.719Z,75.90
2018-04-10T06:17:02.961Z,75.10
2018-04-10T06:19:29.191Z,74.80
2018-04-10T06:21:55.464Z,74.60
2018-04-10T06:24:22.685Z,74.60
2018-04-10T06:26:48.920Z,74.60
2018-04-10T06:29:15.155Z,75.00
2018-04-10T06:31:41.481Z,74.20
2018-04-10T06:34:07.751Z,74.00
2018-04-10T06:36:34.162Z,74.20
2018-04-10T06:39:00.411Z,74.30
2018-04-10T06:41:26.620Z,73.60
2018-04-10T06:43:52.868Z,74.00
2018-04-10T06:46:19.114Z,74.50
2018-04-10T06:48:45.625Z,74.10
2018-04-10T06:51:11.827Z,74.50
2018-04-10T06:53:38.039Z,73.70
2018-04-10T06:56:04.863Z,73.80
2018-04-10T06:58:31.110Z,73.30
2018-04-10T07:00:57.344Z,72.40
2018-04-10T07:03:23.600Z,71.50
2018-04-10T07:05:49.863Z,71.70
2018-04-10T07:08:16.139Z,71.50
2018-04-10T07:10:42.369Z,70.40
2018-04-10T07:13:08.632Z,70.20
2018-04-10T07:15:34.894Z,70.60
2018-04-10T07:18:01.134Z,70.20
2018-04-10T07:20:27.382Z,69.90
2018-04-10T07:22:53.580Z,69.20
2018-04-10T07:25:19.835Z,68.40
2018-04-10T07:27:53.078Z,68.70
2018-04-10T07:30:19.291Z,67.70
2018-04-10T07:32:46.099Z,68.10
2018-04-10T07:35:12.345Z,68.40
2018-04-10T07:37:38.573Z,68.50
2018-04-10T07:40:05.169Z,67.10
2018-04-10T07:42:31.411Z,67.10
2018-04-10T07:44:57.671Z,67.40
2018-04-10T07:47:24.298Z,68.80
2018-04-10T07:49:50.927Z,68.10
2018-04-10T07:52:18.089Z,68.10
2018-04-10T07:54:45.272Z,68.10
2018-04-10T07:57:12.473Z,67.90
2018-04-10T07:59:38.734Z,66.30
2018-04-10T08:02:04.946Z,67.20
2018-04-10T08:04:31.526Z,67.60
2018-04-10T08:06:57.737Z,67.60
2018-04-10T08:09:23.974Z,67.90
2018-04-10T08:11:50.223Z,68.40
2018-04-10T08:14:16.434Z,68.50
2018-04-10T08:16:42.700Z,68.40
2018-04-10T08:19:09.942Z,67.30
2018-04-10T08:21:36.165Z,66.10
2018-04-10T08:24:02.395Z,65.70
2018-04-10T08:26:28.602Z,65.50
2018-04-10T08:28:54.830Z,64.30
2018-04-10T08:31:21.034Z,64.60
2018-04-10T08:33:47.271Z,64.00
2018-04-10T08:36:13.506Z,63.80
2018-04-10T08:38:39.775Z,62.70
2018-04-10T08:41:05.995Z,62.60
2018-04-10T08:43:32.227Z,62.20
2018-04-10T08:45:58.461Z,62.70
2018-04-10T08:48:24.689Z,62.10
2018-04-10T08:50:50.921Z,61.70
2018-04-10T08:53:17.115Z,60.80
2018-04-10T08:55:43.330Z,61.20
2018-04-10T08:58:09.538Z,60.30
2018-04-10T09:00:35.766Z,60.20
2018-04-10T09:03:01.965Z,59.50
2018-04-10T09:05:28.209Z,59.30
2018-04-10T09:07:54.797Z,58.00
2018-04-10T09:10:21.035Z,58.00
2018-04-10T09:12:47.252Z,58.70
2018-04-10T09:15:13.481Z,58.90
2018-04-10T09:17:39.753Z,57.70
2018-04-10T09:20:06.376Z,58.80
2018-04-10T09:22:32.635Z,58.80
2018-04-10T09:24:58.884Z,58.50
2018-04-10T09:27:25.076Z,57.80
2018-04-10T09:29:51.315Z,57.30
2018-04-10T09:32:17.572Z,57.90
2018-04-10T09:34:43.783Z,58.50
2018-04-10T09:37:09.996Z,57.80
2018-04-10T09:39:36.237Z,56.90
2018-04-10T09:42:02.480Z,57.00
2018-04-10T09:44:28.715Z,54.90
2018-04-10T09:46:54.923Z,55.50
2018-04-10T09:49:21.155Z,55.80
2018-04-10T09:51:47.381Z,55.40
2018-04-10T09:54:13.594Z,54.50
2018-04-10T09:56:39.814Z,53.80
2018-04-10T09:59:06.040Z,54.20
2018-04-10T10:01:32.274Z,54.20
2018-04-10T10:03:58.477Z,54.50
2018-04-10T10:06:24.698Z,52.40
2018-04-10T10:08:50.927Z,51.60
2018-04-10T10:11:17.168Z,49.70
2018-04-10T10:13:43.392Z,51.70
2018-04-10T10:16:09.716Z,50.70
2018-04-10T10:18:35.962Z,49.70
2018-04-10T10:21:02.166Z,48.80
2018-04-10T10:23:28.379Z,47.20
2018-04-10T10:25:54.599Z,47.20
2018-04-10T10:28:21.781Z,45.10
2018-04-10T10:30:47.992Z,44.80
2018-04-10T10:33:14.856Z,41.80
2018-04-10T10:35:41.078Z,40.40
2018-04-10T10:38:07.329Z,37.20
2018-04-10T10:40:33.578Z,36.30
2018-04-10T10:42:59.770Z,36.50
2018-04-10T10:45:26.045Z,35.60
2018-04-10T10:47:52.239Z,36.50
2018-04-10T10:50:18.477Z,35.10
2018-04-10T10:52:45.081Z,34.00
2018-04-10T10:55:11.294Z,34.00
2018-04-10T10:57:37.496Z,33.00
2018-04-10T11:00:03.786Z,31.10
2018-04-10T11:02:30.019Z,30.40
2018-04-10T11:04:56.720Z,29.10
2018-04-10T11:07:23.002Z,29.10
2018-04-10T11:09:49.327Z,29.70
2018-04-10T11:12:15.648Z,28.30
2018-04-10T11:14:42.223Z,29.90
2018-04-10T11:17:08.447Z,29.90
2018-04-10T11:19:34.714Z,29.80
2018-04-10T11:22:00.989Z,28.50
2018-04-10T11:24:27.200Z,28.00
2018-04-10T11:26:53.825Z,26.50
2018-04-10T11:29:20.394Z,25.50
2018-04-10T11:31:46.651Z,25.50
2018-04-10T11:34:12.880Z,25.10
2018-04-10T11:36:39.089Z,23.80
2018-04-10T11:39:05.386Z,24.20
2018-04-10T11:41:32.044Z,22.80
2018-04-10T11:43:58.266Z,22.80
2018-04-10T11:46:24.517Z,22.70
2018-04-10T11:48:50.711Z,22.00
2018-04-10T11:51:17.322Z,22.60
2018-04-10T11:53:43.520Z,22.60
2018-04-10T11:56:10.469Z,21.70
2018-04-10T11:58:36.696Z,21.70
2018-04-10T12:01:02.964Z,22.50
2018-04-10T12:03:29.220Z,23.10
2018-04-10T12:05:56.207Z,23.00
2018-04-10T12:08:22.436Z,23.10
2018-04-10T12:10:48.706Z,22.80
2018-04-10T12:13:16.079Z,23.80
2018-04-10T12:15:42.983Z,23.80
2018-04-10T12:18:09.256Z,26.00
2018-04-10T12:20:35.467Z,28.50
2018-04-10T12:23:01.686Z,27.30
2018-04-10T12:25:28.258Z,28.10
2018-04-10T12:27:54.489Z,28.10
2018-04-10T12:30:20.739Z,27.60
2018-04-10T12:32:46.961Z,28.60
2018-04-10T12:35:13.772Z,28.30
2018-04-10T12:37:40.032Z,29.30
2018-04-10T12:40:06.277Z,31.10
2018-04-10T12:42:32.512Z,31.80
2018-04-10T12:44:58.747Z,31.30
2018-04-10T12:47:25.665Z,31.00
2018-04-10T12:49:51.928Z,31.20
2018-04-10T12:52:19.588Z,33.50
2018-04-10T12:54:46.197Z,33.80
2018-04-10T12:57:12.394Z,33.80
2018-04-10T12:59:38.622Z,33.70
2018-04-10T13:02:04.889Z,33.20
2018-04-10T13:04:31.257Z,35.70
2018-04-10T13:06:57.551Z,36.00
2018-04-10T13:09:23.814Z,37.80
2018-04-10T13:11:50.417Z,38.40
2018-04-10T13:14:17.509Z,38.40
2018-04-10T13:16:43.844Z,38.20
2018-04-10T13:19:10.115Z,38.20
2018-04-10T13:21:36.465Z,38.30
2018-04-10T13:24:02.776Z,38.60
2018-04-10T13:26:29.088Z,39.30
2018-04-10T13:28:55.327Z,38.40
2018-04-10T13:31:21.540Z,39.80
2018-04-10T13:33:47.761Z,39.30
2018-04-10T13:36:13.992Z,39.80
2018-04-10T13:38:40.266Z,39.40
2018-04-10T13:41:06.540Z,38.80
2018-04-10T13:43:32.766Z,39.50
2018-04-10T13:45:58.999Z,38.90
2018-04-10T13:48:25.232Z,38.70
2018-04-10T13:50:51.467Z,40.40
2018-04-10T13:53:17.695Z,39.00
2018-04-10T13:55:43.928Z,38.60
2018-04-10T13:58:10.149Z,38.10
2018-04-10T14:00:36.396Z,39.70
2018-04-10T14:03:02.677Z,38.30
2018-04-10T14:05:29.257Z,39.50
2018-04-10T14:07:55.522Z,39.60
2018-04-10T14:10:22.199Z,37.10
2018-04-10T14:12:48.432Z,37.10
2018-04-10T14:15:14.732Z,40.10
2018-04-10T14:17:40.959Z,38.50
2018-04-10T14:20:07.188Z,39.30
2018-04-10T14:22:33.437Z,36.60
2018-04-10T14:24:59.673Z,36.60
2018-04-10T14:27:25.966Z,37.50
2018-04-10T14:29:52.546Z,36.80
2018-04-10T14:32:18.777Z,36.80
2018-04-10T14:34:45.047Z,37.90
2018-04-10T14:37:11.341Z,38.20
2018-04-10T14:39:37.585Z,37.50
2018-04-10T14:42:03.842Z,38.40
2018-04-10T14:44:30.077Z,39.50
2018-04-10T14:46:56.323Z,38.10
2018-04-10T14:49:22.572Z,37.80
2018-04-10T14:51:48.826Z,37.80
2018-04-10T14:54:15.090Z,37.50
2018-04-10T14:56:41.715Z,38.30
2018-04-10T14:59:07.957Z,38.30
2018-04-10T15:01:34.580Z,37.60
2018-04-10T15:04:00.814Z,37.60
2018-04-10T15:06:27.473Z,38.80
2018-04-10T15:08:54.057Z,39.30
2018-04-10T15:11:20.278Z,39.30
2018-04-10T15:13:46.879Z,37.10
2018-04-10T15:16:13.123Z,39.00
2018-04-10T15:18:39.355Z,37.70
2018-04-10T15:21:05.631Z,38.90
2018-04-10T15:23:34.007Z,38.50
2018-04-10T15:26:00.289Z,38.60
2018-04-10T15:28:27.353Z,40.60
2018-04-10T15:30:53.715Z,40.60
2018-04-10T15:33:19.951Z,40.60
2018-04-10T15:35:46.787Z,41.30
2018-04-10T15:38:13.072Z,41.00
2018-04-10T15:40:39.286Z,40.80
2018-04-10T15:43:05.532Z,40.80
2018-04-10T15:45:31.785Z,41.60
2018-04-10T15:47:58.041Z,43.50
2018-04-10T15:50:24.687Z,45.30
2018-04-10T15:52:51.552Z,45.60
2018-04-10T15:55:17.782Z,45.60
2018-04-10T15:57:44.781Z,45.20
2018-04-10T16:00:10.999Z,45.10
2018-04-10T16:02:37.225Z,46.20
2018-04-10T16:05:03.480Z,45.70
2018-04-10T16:07:30.075Z,45.40
2018-04-10T16:09:56.316Z,45.40
2018-04-10T16:12:22.612Z,45.40
2018-04-10T16:14:48.857Z,45.60
2018-04-10T16:17:15.117Z,45.50
2018-04-10T16:19:41.369Z,45.10
2018-04-10T16:22:07.630Z,45.00
2018-04-10T16:24:33.873Z,46.40
2018-04-10T16:27:00.119Z,45.50
2018-04-10T16:29:26.403Z,45.00
2018-04-10T16:31:52.650Z,45.60
2018-04-10T16:34:20.267Z,45.30
2018-04-10T16:36:46.919Z,46.10
2018-04-10T16:39:13.159Z,46.10
2018-04-10T16:41:39.366Z,46.10
2018-04-10T16:44:05.975Z,46.10
2018-04-10T16:46:32.208Z,46.10
2018-04-10T16:48:58.492Z,46.90
2018-04-10T16:51:24.687Z,47.50
2018-04-10T16:53:51.340Z,47.40
2018-04-10T16:56:18.355Z,47.40
2018-04-10T16:58:48.608Z,47.40
2018-04-10T17:01:15.276Z,47.90
2018-04-10T17:03:42.545Z,47.90
2018-04-10T17:06:08.801Z,48.30
2018-04-10T17:08:35.020Z,48.20
2018-04-10T17:11:01.239Z,49.70
2018-04-10T17:13:27.529Z,49.70
2018-04-10T17:15:53.870Z,49.70
2018-04-10T17:18:20.186Z,50.60
2018-04-10T17:20:46.489Z,50.10
2018-04-10T17:23:13.089Z,51.60
2018-04-10T17:25:39.451Z,53.90
2018-04-10T17:28:05.710Z,56.70
2018-04-10T17:30:31.937Z,57.90
2018-04-10T17:32:58.143Z,59.50
2018-04-10T17:35:24.461Z,60.10
2018-04-10T17:37:50.774Z,60.10
2018-04-10T17:40:17.072Z,66.60
2018-04-10T17:42:43.317Z,72.60
2018-04-10T17:45:09.562Z,74.90
2018-04-10T17:47:35.860Z,78.00
2018-04-10T17:50:02.166Z,79.20
2018-04-10T17:52:28.476Z,80.80
2018-04-10T17:54:54.756Z,78.10
2018-04-10T17:57:21.582Z,78.90
2018-04-10T17:59:47.860Z,78.30
2018-04-10T18:02:14.126Z,78.50
2018-04-10T18:04:40.432Z,79.30
2018-04-10T18:07:07.095Z,78.70
2018-04-10T18:09:33.769Z,76.40
2018-04-10T18:12:00.078Z,76.40
2018-04-10T18:14:26.327Z,77.90
2018-04-10T18:16:52.651Z,78.30
2018-04-10T18:19:19.000Z,75.50
2018-04-10T18:21:45.245Z,78.40
2018-04-10T18:24:11.544Z,78.90
2018-04-10T18:26:37.813Z,75.90
2018-04-10T18:29:05.018Z,80.10
2018-04-10T18:31:33.154Z,80.10
2018-04-10T18:33:59.888Z,76.50
2018-04-10T18:36:26.254Z,76.50
2018-04-10T18:38:52.500Z,77.20
2018-04-10T18:41:18.890Z,81.10
2018-04-10T18:43:45.147Z,80.70
2018-04-10T18:46:12.068Z,80.80
2018-04-10T18:48:38.398Z,80.60
2018-04-10T18:51:04.658Z,79.50
2018-04-10T18:53:30.978Z,80.80
2018-04-10T18:55:58.069Z,79.30
2018-04-10T18:58:24.433Z,80.80
2018-04-10T19:00:50.775Z,79.80
2018-04-10T19:03:17.041Z,80.70
2018-04-10T19:05:43.382Z,81.40
2018-04-10T19:08:09.651Z,79.80
2018-04-10T19:10:36.351Z,82.60
2018-04-10T19:13:02.600Z,82.60
2018-04-10T19:15:29.408Z,83.00
2018-04-10T19:17:55.711Z,81.90
2018-04-10T19:20:21.957Z,83.40
2018-04-10T19:22:49.437Z,84.10
2018-04-10T19:25:15.727Z,82.40
2018-04-10T19:27:41.979Z,81.60
2018-04-10T19:30:09.279Z,82.90
2018-04-10T19:32:35.964Z,82.50
2018-04-10T19:35:02.230Z,82.50
2018-04-10T19:37:29.683Z,82.90
2018-04-10T19:39:57.012Z,84.50
2018-04-10T19:42:23.339Z,82.60
2018-04-10T19:44:49.687Z,81.40
2018-04-10T19:47:16.083Z,80.80
2018-04-10T19:49:43.211Z,80.20
2018-04-10T19:52:10.533Z,78.90
2018-04-10T19:54:37.883Z,78.90
2018-04-10T19:57:04.205Z,79.40
2018-04-10T19:59:30.492Z,82.00
2018-04-10T20:01:56.817Z,80.80
2018-04-10T20:04:23.123Z,82.30
2018-04-10T20:06:49.761Z,82.20
2018-04-10T20:09:16.373Z,82.10
2018-04-10T20:11:42.715Z,82.10
2018-04-10T20:14:08.986Z,81.30
2018-04-10T20:16:35.288Z,79.70
2018-04-10T20:19:01.909Z,81.50
2018-04-10T20:21:28.209Z,81.50
2018-04-10T20:23:54.470Z,81.80
2018-04-10T20:26:20.754Z,80.70
2018-04-10T20:28:46.985Z,79.70
2018-04-10T20:31:13.295Z,79.20
2018-04-10T20:33:40.200Z,80.10
2018-04-10T20:36:06.437Z,80.10
2018-04-10T20:38:33.076Z,79.60
2018-04-10T20:40:59.332Z,79.70
2018-04-10T20:43:26.921Z,78.90
2018-04-10T20:45:53.241Z,79.70
2018-04-10T20:48:19.583Z,79.90
2018-04-10T20:50:45.861Z,80.80
2018-04-10T20:53:12.486Z,79.10
2018-04-10T20:55:38.736Z,79.10
2018-04-10T20:58:05.353Z,79.40
2018-04-10T21:00:31.575Z,79.40
2018-04-10T21:02:57.839Z,78.70
2018-04-10T21:05:24.497Z,78.90
2018-04-10T21:07:50.729Z,78.90
2018-04-10T21:10:17.015Z,79.30
2018-04-10T21:12:43.358Z,78.50
2018-04-10T21:15:09.979Z,78.80
2018-04-10T21:17:36.260Z,78.80
2018-04-10T21:20:02.528Z,78.30
2018-04-10T21:22:28.764Z,77.90
2018-04-10T21:24:55.029Z,78.80
2018-04-10T21:27:21.300Z,79.20
2018-04-10T21:29:47.522Z,78.00
2018-04-10T21:32:13.762Z,77.90
2018-04-10T21:34:40.000Z,77.20
2018-04-10T21:37:06.181Z,76.90
2018-04-10T21:39:32.435Z,76.90
2018-04-10T21:41:59.159Z,78.30
2018-04-10T21:44:25.406Z,77.90
2018-04-10T21:46:51.651Z,78.70
2018-04-10T21:49:17.864Z,79.30
2018-04-10T21:51:44.994Z,78.00
2018-04-10T21:54:11.218Z,79.80
2018-04-10T21:56:37.405Z,78.30
2018-04-10T21:59:04.002Z,78.90
2018-04-10T22:01:30.231Z,78.90
2018-04-10T22:03:56.515Z,78.90
2018-04-10T22:06:22.701Z,78.50
2018-04-10T22:08:48.964Z,79.20
2018-04-10T22:11:15.186Z,77.90
2018-04-10T22:13:41.412Z,77.30
2018-04-10T22:16:07.640Z,76.70
2018-04-10T22:18:33.848Z,78.40
2018-04-10T22:21:00.061Z,77.30
2018-04-10T22:23:26.299Z,80.10
2018-04-10T22:25:52.549Z,79.90
2018-04-10T22:28:18.779Z,77.90
2018-04-10T22:30:44.969Z,76.20
2018-04-10T22:33:11.176Z,75.80
2018-04-10T22:35:37.385Z,75.10
2018-04-10T22:38:03.628Z,76.60
2018-04-10T22:40:29.919Z,77.60
2018-04-10T22:42:56.159Z,76.50
2018-04-10T22:45:22.389Z,78.60
2018-04-10T22:47:48.619Z,79.30
2018-04-10T22:50:14.836Z,78.80
2018-04-10T22:52:41.059Z,80.20
2018-04-10T22:55:07.317Z,80.10
2018-04-10T22:57:33.523Z,80.00
2018-04-10T22:59:59.795Z,80.70
2018-04-10T23:02:26.003Z,80.90
2018-04-10T23:04:52.243Z,80.10
2018-04-10T23:07:18.482Z,80.60
2018-04-10T23:09:44.700Z,79.60
2018-04-10T23:12:10.946Z,81.10
2018-04-10T23:14:37.185Z,80.80
2018-04-10T23:17:03.447Z,81.50
2018-04-10T23:19:30.044Z,81.50
2018-04-10T23:21:56.283Z,81.50
2018-04-10T23:24:22.563Z,81.30
2018-04-10T23:26:48.808Z,81.80
2018-04-10T23:29:15.076Z,82.40
2018-04-10T23:31:41.306Z,82.20
2018-04-10T23:34:07.601Z,82.30
2018-04-10T23:36:33.861Z,82.60
2018-04-10T23:39:00.079Z,83.00
2018-04-10T23:41:26.323Z,83.00
2018-04-10T23:43:52.568Z,82.50
2018-04-10T23:46:19.179Z,82.70
2018-04-10T23:48:45.409Z,82.70
2018-04-10T23:51:12.608Z,82.60
2018-04-10T23:53:38.841Z,82.20
2018-04-10T23:56:05.046Z,82.20
2018-04-10T23:58:31.264Z,81.90
